sensor_id;sensor_type;location;lat;lon;timestamp;temperature;humidity
55083;DHT22;40978;52.850;6.506;2023-04-03T00:01:07;2.50;99.90
55083;DHT22;40978;52.850;6.506;2023-04-03T00:03:33;2.40;99.90
55083;DHT22;40978;52.850;6.506;2023-04-03T00:05:59;2.40;99.90
55083;DHT22;40978;52.850;6.506;2023-04-03T00:08:25;2.40;99.90
55083;DHT22;40978;52.850;6.506;2023-04-03T00:10:51;2.30;99.90
55083;DHT22;40978;52.850;6.506;2023-04-03T00:13:16;2.20;99.90
55083;DHT22;40978;52.850;6.506;2023-04-03T00:15:43;2.30;99.90
55083;DHT22;40978;52.850;6.506;2023-04-03T00:18:09;2.20;99.90
55083;DHT22;40978;52.850;6.506;2023-04-03T00:20:35;2.10;99.90
55083;DHT22;40978;52.850;6.506;2023-04-03T00:23:01;2.20;99.90
55083;DHT22;40978;52.850;6.506;2023-04-03T00:25:27;2.20;99.90
55083;DHT22;40978;52.850;6.506;2023-04-03T00:27:53;2.10;99.90
55083;DHT22;40978;52.850;6.506;2023-04-03T00:30:21;2.10;99.90
55083;DHT22;40978;52.850;6.506;2023-04-03T00:32:51;2.10;99.90
55083;DHT22;40978;52.850;6.506;2023-04-03T00:35:18;2.00;99.90
55083;DHT22;40978;52.850;6.506;2023-04-03T00:37:44;2.00;99.90
55083;DHT22;40978;52.850;6.506;2023-04-03T00:40:13;2.00;99.90
55083;DHT22;40978;52.850;6.506;2023-04-03T00:42:43;2.00;99.90
55083;DHT22;40978;52.850;6.506;2023-04-03T00:47:43;2.00;99.90
55083;DHT22;40978;52.850;6.506;2023-04-03T00:50:10;1.90;99.90
55083;DHT22;40978;52.850;6.506;2023-04-03T00:52:37;1.90;99.90
55083;DHT22;40978;52.850;6.506;2023-04-03T00:55:08;2.00;99.90
55083;DHT22;40978;52.850;6.506;2023-04-03T00:57:34;1.90;99.90
55083;DHT22;40978;52.850;6.506;2023-04-03T01:00:09;1.90;99.90
55083;DHT22;40978;52.850;6.506;2023-04-03T01:02:36;1.90;99.90
55083;DHT22;40978;52.850;6.506;2023-04-03T01:05:02;1.80;99.90
55083;DHT22;40978;52.850;6.506;2023-04-03T01:07:32;1.80;99.90
55083;DHT22;40978;52.850;6.506;2023-04-03T01:10:01;1.80;99.90
55083;DHT22;40978;52.850;6.506;2023-04-03T01:12:39;1.70;99.90
55083;DHT22;40978;52.850;6.506;2023-04-03T01:15:12;1.70;99.90
55083;DHT22;40978;52.850;6.506;2023-04-03T01:17:50;1.70;99.90
55083;DHT22;40978;52.850;6.506;2023-04-03T01:25:55;1.60;99.90
55083;DHT22;40978;52.850;6.506;2023-04-03T01:28:23;1.60;99.90
55083;DHT22;40978;52.850;6.506;2023-04-03T01:33:34;1.50;99.90
55083;DHT22;40978;52.850;6.506;2023-04-03T01:36:00;1.50;99.90
55083;DHT22;40978;52.850;6.506;2023-04-03T01:38:26;1.40;99.90
55083;DHT22;40978;52.850;6.506;2023-04-03T01:40:52;1.50;99.90
55083;DHT22;40978;52.850;6.506;2023-04-03T01:43:17;1.40;99.90
55083;DHT22;40978;52.850;6.506;2023-04-03T01:45:43;1.40;99.90
55083;DHT22;40978;52.850;6.506;2023-04-03T01:48:09;1.50;99.90
55083;DHT22;40978;52.850;6.506;2023-04-03T01:50:35;1.30;99.90
55083;DHT22;40978;52.850;6.506;2023-04-03T01:53:00;1.30;99.90
55083;DHT22;40978;52.850;6.506;2023-04-03T01:55:26;1.30;99.90
55083;DHT22;40978;52.850;6.506;2023-04-03T01:57:52;1.20;99.90
55083;DHT22;40978;52.850;6.506;2023-04-03T02:00:18;1.20;99.90
55083;DHT22;40978;52.850;6.506;2023-04-03T02:02:43;1.20;99.90
55083;DHT22;40978;52.850;6.506;2023-04-03T02:05:09;1.20;99.90
55083;DHT22;40978;52.850;6.506;2023-04-03T02:07:35;1.20;99.90
55083;DHT22;40978;52.850;6.506;2023-04-03T02:10:01;1.20;99.90
55083;DHT22;40978;52.850;6.506;2023-04-03T02:12:26;1.20;99.90
55083;DHT22;40978;52.850;6.506;2023-04-03T02:14:52;1.10;99.90
55083;DHT22;40978;52.850;6.506;2023-04-03T02:17:18;1.10;99.90
55083;DHT22;40978;52.850;6.506;2023-04-03T02:19:43;1.20;99.90
55083;DHT22;40978;52.850;6.506;2023-04-03T02:22:09;1.10;99.90
55083;DHT22;40978;52.850;6.506;2023-04-03T02:24:35;1.10;99.90
55083;DHT22;40978;52.850;6.506;2023-04-03T02:27:01;1.00;99.90
55083;DHT22;40978;52.850;6.506;2023-04-03T02:29:27;1.00;99.90
55083;DHT22;40978;52.850;6.506;2023-04-03T02:31:52;1.00;99.90
55083;DHT22;40978;52.850;6.506;2023-04-03T02:34:18;0.90;99.90
55083;DHT22;40978;52.850;6.506;2023-04-03T02:36:44;0.90;99.90
55083;DHT22;40978;52.850;6.506;2023-04-03T02:39:10;0.90;99.90
55083;DHT22;40978;52.850;6.506;2023-04-03T02:41:36;0.90;99.90
55083;DHT22;40978;52.850;6.506;2023-04-03T02:44:03;1.00;99.90
55083;DHT22;40978;52.850;6.506;2023-04-03T02:46:29;0.90;99.90
55083;DHT22;40978;52.850;6.506;2023-04-03T02:48:55;0.80;99.90
55083;DHT22;40978;52.850;6.506;2023-04-03T02:51:21;0.80;99.90
55083;DHT22;40978;52.850;6.506;2023-04-03T02:53:49;0.80;99.90
55083;DHT22;40978;52.850;6.506;2023-04-03T02:56:15;0.80;99.90
55083;DHT22;40978;52.850;6.506;2023-04-03T02:58:40;0.80;99.90
55083;DHT22;40978;52.850;6.506;2023-04-03T03:01:06;0.80;99.90
55083;DHT22;40978;52.850;6.506;2023-04-03T03:03:32;0.80;99.90
55083;DHT22;40978;52.850;6.506;2023-04-03T03:06:05;0.80;99.90
55083;DHT22;40978;52.850;6.506;2023-04-03T03:08:32;0.70;99.90
55083;DHT22;40978;52.850;6.506;2023-04-03T03:10:58;0.70;99.90
55083;DHT22;40978;52.850;6.506;2023-04-03T03:13:24;0.70;99.90
55083;DHT22;40978;52.850;6.506;2023-04-03T03:15:50;0.70;99.90
55083;DHT22;40978;52.850;6.506;2023-04-03T03:18:16;0.70;99.90
55083;DHT22;40978;52.850;6.506;2023-04-03T03:20:42;0.70;99.90
55083;DHT22;40978;52.850;6.506;2023-04-03T03:23:07;0.60;99.90
55083;DHT22;40978;52.850;6.506;2023-04-03T03:25:33;0.60;99.90
55083;DHT22;40978;52.850;6.506;2023-04-03T03:28:02;0.60;99.90
55083;DHT22;40978;52.850;6.506;2023-04-03T03:30:28;0.50;99.90
55083;DHT22;40978;52.850;6.506;2023-04-03T03:32:54;0.50;99.90
55083;DHT22;40978;52.850;6.506;2023-04-03T03:35:19;0.50;99.90
55083;DHT22;40978;52.850;6.506;2023-04-03T03:37:45;0.50;99.90
55083;DHT22;40978;52.850;6.506;2023-04-03T03:40:11;0.50;99.90
55083;DHT22;40978;52.850;6.506;2023-04-03T03:42:38;0.40;99.90
55083;DHT22;40978;52.850;6.506;2023-04-03T03:45:05;0.40;99.90
55083;DHT22;40978;52.850;6.506;2023-04-03T03:47:31;0.40;99.90
55083;DHT22;40978;52.850;6.506;2023-04-03T03:49:56;0.40;99.90
55083;DHT22;40978;52.850;6.506;2023-04-03T03:52:22;0.40;99.90
55083;DHT22;40978;52.850;6.506;2023-04-03T03:54:48;0.30;99.90
55083;DHT22;40978;52.850;6.506;2023-04-03T03:57:14;0.40;99.90
55083;DHT22;40978;52.850;6.506;2023-04-03T03:59:40;0.30;99.90
55083;DHT22;40978;52.850;6.506;2023-04-03T04:02:07;0.30;99.90
55083;DHT22;40978;52.850;6.506;2023-04-03T04:04:33;0.30;99.90
55083;DHT22;40978;52.850;6.506;2023-04-03T04:06:59;0.30;99.90
55083;DHT22;40978;52.850;6.506;2023-04-03T04:09:26;0.30;99.90
55083;DHT22;40978;52.850;6.506;2023-04-03T04:11:53;0.20;99.90
55083;DHT22;40978;52.850;6.506;2023-04-03T04:14:19;0.20;99.90
55083;DHT22;40978;52.850;6.506;2023-04-03T04:16:47;0.20;99.90
55083;DHT22;40978;52.850;6.506;2023-04-03T04:19:14;0.20;99.90
55083;DHT22;40978;52.850;6.506;2023-04-03T04:21:40;0.20;99.90
55083;DHT22;40978;52.850;6.506;2023-04-03T04:24:07;0.20;99.90
55083;DHT22;40978;52.850;6.506;2023-04-03T04:26:33;0.20;99.90
55083;DHT22;40978;52.850;6.506;2023-04-03T04:28:59;0.10;99.90
55083;DHT22;40978;52.850;6.506;2023-04-03T04:31:26;0.10;99.90
55083;DHT22;40978;52.850;6.506;2023-04-03T04:33:52;0.00;99.90
55083;DHT22;40978;52.850;6.506;2023-04-03T04:36:17;0.00;99.90
55083;DHT22;40978;52.850;6.506;2023-04-03T04:38:43;0.00;99.90
55083;DHT22;40978;52.850;6.506;2023-04-03T04:41:09;0.00;99.90
55083;DHT22;40978;52.850;6.506;2023-04-03T04:43:35;0.00;99.90
55083;DHT22;40978;52.850;6.506;2023-04-03T04:46:03;-0.10;99.90
55083;DHT22;40978;52.850;6.506;2023-04-03T04:48:29;-0.10;99.90
55083;DHT22;40978;52.850;6.506;2023-04-03T04:50:55;-0.20;99.90
55083;DHT22;40978;52.850;6.506;2023-04-03T04:53:21;-0.20;99.90
55083;DHT22;40978;52.850;6.506;2023-04-03T04:55:47;-0.20;99.90
55083;DHT22;40978;52.850;6.506;2023-04-03T04:58:13;-0.20;99.90
55083;DHT22;40978;52.850;6.506;2023-04-03T05:00:38;-0.20;99.90
55083;DHT22;40978;52.850;6.506;2023-04-03T05:03:04;-0.30;99.90
55083;DHT22;40978;52.850;6.506;2023-04-03T05:05:30;-0.30;99.90
55083;DHT22;40978;52.850;6.506;2023-04-03T05:07:56;-0.30;99.90
55083;DHT22;40978;52.850;6.506;2023-04-03T05:10:22;-0.30;99.90
55083;DHT22;40978;52.850;6.506;2023-04-03T05:12:47;-0.30;99.90
55083;DHT22;40978;52.850;6.506;2023-04-03T05:15:13;-0.30;99.90
55083;DHT22;40978;52.850;6.506;2023-04-03T05:17:39;-0.30;99.90
55083;DHT22;40978;52.850;6.506;2023-04-03T05:20:05;-0.30;99.90
55083;DHT22;40978;52.850;6.506;2023-04-03T05:22:31;-0.30;99.90
55083;DHT22;40978;52.850;6.506;2023-04-03T05:24:57;-0.30;99.90
55083;DHT22;40978;52.850;6.506;2023-04-03T05:27:23;-0.30;99.90
55083;DHT22;40978;52.850;6.506;2023-04-03T05:29:50;-0.30;99.90
55083;DHT22;40978;52.850;6.506;2023-04-03T05:32:17;-0.30;99.90
55083;DHT22;40978;52.850;6.506;2023-04-03T05:34:43;-0.20;99.90
55083;DHT22;40978;52.850;6.506;2023-04-03T05:37:09;-0.20;99.90
55083;DHT22;40978;52.850;6.506;2023-04-03T05:39:35;-0.20;99.90
55083;DHT22;40978;52.850;6.506;2023-04-03T05:42:00;-0.20;99.90
55083;DHT22;40978;52.850;6.506;2023-04-03T05:44:26;-0.10;99.90
55083;DHT22;40978;52.850;6.506;2023-04-03T05:46:52;-0.10;99.90
55083;DHT22;40978;52.850;6.506;2023-04-03T05:49:17;0.00;99.90
55083;DHT22;40978;52.850;6.506;2023-04-03T05:51:43;0.00;99.90
55083;DHT22;40978;52.850;6.506;2023-04-03T05:54:23;0.10;99.90
55083;DHT22;40978;52.850;6.506;2023-04-03T05:56:49;0.20;99.90
55083;DHT22;40978;52.850;6.506;2023-04-03T05:59:16;0.30;99.90
55083;DHT22;40978;52.850;6.506;2023-04-03T06:01:42;0.40;99.90
55083;DHT22;40978;52.850;6.506;2023-04-03T06:04:07;0.50;99.90
55083;DHT22;40978;52.850;6.506;2023-04-03T06:06:53;0.50;99.90
55083;DHT22;40978;52.850;6.506;2023-04-03T06:09:25;0.70;99.90
55083;DHT22;40978;52.850;6.506;2023-04-03T06:11:52;0.80;99.90
55083;DHT22;40978;52.850;6.506;2023-04-03T06:14:18;0.80;99.90
55083;DHT22;40978;52.850;6.506;2023-04-03T06:16:44;0.90;99.90
55083;DHT22;40978;52.850;6.506;2023-04-03T06:19:11;1.00;99.90
55083;DHT22;40978;52.850;6.506;2023-04-03T06:21:37;1.10;99.90
55083;DHT22;40978;52.850;6.506;2023-04-03T06:24:06;1.20;99.90
55083;DHT22;40978;52.850;6.506;2023-04-03T06:26:33;1.30;99.90
55083;DHT22;40978;52.850;6.506;2023-04-03T06:28:59;1.40;99.90
55083;DHT22;40978;52.850;6.506;2023-04-03T06:31:25;1.50;99.90
55083;DHT22;40978;52.850;6.506;2023-04-03T06:33:51;1.60;99.90
55083;DHT22;40978;52.850;6.506;2023-04-03T06:36:19;1.70;99.90
55083;DHT22;40978;52.850;6.506;2023-04-03T06:38:46;1.80;99.90
55083;DHT22;40978;52.850;6.506;2023-04-03T06:41:12;1.90;99.90
55083;DHT22;40978;52.850;6.506;2023-04-03T06:43:38;2.00;99.90
55083;DHT22;40978;52.850;6.506;2023-04-03T06:46:04;2.10;99.90
55083;DHT22;40978;52.850;6.506;2023-04-03T06:48:30;2.20;99.90
55083;DHT22;40978;52.850;6.506;2023-04-03T06:50:56;2.20;99.90
55083;DHT22;40978;52.850;6.506;2023-04-03T06:53:22;2.40;99.90
55083;DHT22;40978;52.850;6.506;2023-04-03T06:55:48;2.50;99.90
55083;DHT22;40978;52.850;6.506;2023-04-03T06:58:14;2.60;99.90
55083;DHT22;40978;52.850;6.506;2023-04-03T07:00:41;2.70;99.90
55083;DHT22;40978;52.850;6.506;2023-04-03T07:03:06;2.80;99.90
55083;DHT22;40978;52.850;6.506;2023-04-03T07:05:33;2.90;99.90
55083;DHT22;40978;52.850;6.506;2023-04-03T07:07:58;3.00;99.90
55083;DHT22;40978;52.850;6.506;2023-04-03T07:10:24;3.00;99.90
55083;DHT22;40978;52.850;6.506;2023-04-03T07:12:50;3.10;99.90
55083;DHT22;40978;52.850;6.506;2023-04-03T07:15:16;3.30;99.90
55083;DHT22;40978;52.850;6.506;2023-04-03T07:17:42;3.50;99.90
55083;DHT22;40978;52.850;6.506;2023-04-03T07:20:08;3.50;99.90
55083;DHT22;40978;52.850;6.506;2023-04-03T07:22:34;3.70;99.90
55083;DHT22;40978;52.850;6.506;2023-04-03T07:24:59;3.80;99.90
55083;DHT22;40978;52.850;6.506;2023-04-03T07:27:25;4.00;99.90
55083;DHT22;40978;52.850;6.506;2023-04-03T07:29:51;4.10;99.90
55083;DHT22;40978;52.850;6.506;2023-04-03T07:32:17;4.30;99.90
55083;DHT22;40978;52.850;6.506;2023-04-03T07:34:43;4.60;99.90
55083;DHT22;40978;52.850;6.506;2023-04-03T07:37:09;4.80;99.90
55083;DHT22;40978;52.850;6.506;2023-04-03T07:39:35;5.00;99.90
55083;DHT22;40978;52.850;6.506;2023-04-03T07:42:01;5.20;99.90
55083;DHT22;40978;52.850;6.506;2023-04-03T07:44:27;5.50;99.90
55083;DHT22;40978;52.850;6.506;2023-04-03T07:46:53;5.80;99.90
55083;DHT22;40978;52.850;6.506;2023-04-03T07:49:21;6.20;99.90
55083;DHT22;40978;52.850;6.506;2023-04-03T07:51:49;6.70;99.90
55083;DHT22;40978;52.850;6.506;2023-04-03T07:54:15;7.40;99.90
55083;DHT22;40978;52.850;6.506;2023-04-03T07:56:41;8.30;99.90
55083;DHT22;40978;52.850;6.506;2023-04-03T07:59:09;8.90;99.90
55083;DHT22;40978;52.850;6.506;2023-04-03T08:01:35;9.40;99.90
55083;DHT22;40978;52.850;6.506;2023-04-03T08:04:01;9.90;99.90
55083;DHT22;40978;52.850;6.506;2023-04-03T08:06:27;10.20;99.90
55083;DHT22;40978;52.850;6.506;2023-04-03T08:08:55;10.50;99.90
55083;DHT22;40978;52.850;6.506;2023-04-03T08:11:21;10.60;99.90
55083;DHT22;40978;52.850;6.506;2023-04-03T08:13:47;10.50;99.90
55083;DHT22;40978;52.850;6.506;2023-04-03T08:16:17;10.80;99.90
55083;DHT22;40978;52.850;6.506;2023-04-03T08:18:43;10.80;99.90
55083;DHT22;40978;52.850;6.506;2023-04-03T08:21:11;11.10;99.70
55083;DHT22;40978;52.850;6.506;2023-04-03T08:23:38;11.00;96.60
55083;DHT22;40978;52.850;6.506;2023-04-03T08:26:12;11.30;97.00
55083;DHT22;40978;52.850;6.506;2023-04-03T08:28:39;11.70;96.80
55083;DHT22;40978;52.850;6.506;2023-04-03T08:31:11;11.80;96.80
55083;DHT22;40978;52.850;6.506;2023-04-03T08:33:38;11.90;94.00
55083;DHT22;40978;52.850;6.506;2023-04-03T08:36:06;12.00;94.90
55083;DHT22;40978;52.850;6.506;2023-04-03T08:38:31;12.20;94.90
55083;DHT22;40978;52.850;6.506;2023-04-03T08:43:43;12.80;93.20
55083;DHT22;40978;52.850;6.506;2023-04-03T08:46:14;13.10;93.60
55083;DHT22;40978;52.850;6.506;2023-04-03T08:48:42;13.50;92.60
55083;DHT22;40978;52.850;6.506;2023-04-03T08:51:15;13.60;92.60
55083;DHT22;40978;52.850;6.506;2023-04-03T08:53:57;13.70;88.90
55083;DHT22;40978;52.850;6.506;2023-04-03T08:56:24;13.60;82.80
55083;DHT22;40978;52.850;6.506;2023-04-03T08:58:58;13.40;80.00
55083;DHT22;40978;52.850;6.506;2023-04-03T09:01:34;13.50;81.80
55083;DHT22;40978;52.850;6.506;2023-04-03T09:04:02;13.50;82.20
55083;DHT22;40978;52.850;6.506;2023-04-03T09:06:31;13.40;80.60
55083;DHT22;40978;52.850;6.506;2023-04-03T09:11:57;13.60;73.30
55083;DHT22;40978;52.850;6.506;2023-04-03T09:18:04;13.60;74.90
55083;DHT22;40978;52.850;6.506;2023-04-03T09:20:39;13.60;73.90
55083;DHT22;40978;52.850;6.506;2023-04-03T09:23:42;13.80;73.50
55083;DHT22;40978;52.850;6.506;2023-04-03T09:26:17;13.80;69.70
55083;DHT22;40978;52.850;6.506;2023-04-03T09:28:45;13.80;70.00
55083;DHT22;40978;52.850;6.506;2023-04-03T09:31:27;13.90;69.30
55083;DHT22;40978;52.850;6.506;2023-04-03T09:33:58;13.70;65.60
55083;DHT22;40978;52.850;6.506;2023-04-03T09:36:46;13.80;67.40
55083;DHT22;40978;52.850;6.506;2023-04-03T09:39:27;14.00;63.70
55083;DHT22;40978;52.850;6.506;2023-04-03T09:42:19;14.10;67.00
55083;DHT22;40978;52.850;6.506;2023-04-03T09:44:59;14.40;56.10
55083;DHT22;40978;52.850;6.506;2023-04-03T09:47:28;13.90;59.40
55083;DHT22;40978;52.850;6.506;2023-04-03T09:52:39;14.10;59.50
55083;DHT22;40978;52.850;6.506;2023-04-03T09:55:17;14.00;59.00
55083;DHT22;40978;52.850;6.506;2023-04-03T09:57:45;14.00;57.30
55083;DHT22;40978;52.850;6.506;2023-04-03T10:00:26;14.00;57.00
55083;DHT22;40978;52.850;6.506;2023-04-03T10:02:56;13.90;54.40
55083;DHT22;40978;52.850;6.506;2023-04-03T10:05:30;13.80;57.50
55083;DHT22;40978;52.850;6.506;2023-04-03T10:10:45;14.30;57.50
55083;DHT22;40978;52.850;6.506;2023-04-03T10:13:16;14.40;55.50
55083;DHT22;40978;52.850;6.506;2023-04-03T10:16:06;14.20;56.20
55083;DHT22;40978;52.850;6.506;2023-04-03T10:21:06;14.20;56.40
55083;DHT22;40978;52.850;6.506;2023-04-03T10:23:45;14.10;55.10
55083;DHT22;40978;52.850;6.506;2023-04-03T10:26:21;14.20;53.40
55083;DHT22;40978;52.850;6.506;2023-04-03T10:29:02;14.20;54.40
55083;DHT22;40978;52.850;6.506;2023-04-03T10:31:44;14.10;55.50
55083;DHT22;40978;52.850;6.506;2023-04-03T10:34:20;14.00;53.30
55083;DHT22;40978;52.850;6.506;2023-04-03T10:39:38;13.90;48.90
55083;DHT22;40978;52.850;6.506;2023-04-03T10:42:18;13.90;55.60
55083;DHT22;40978;52.850;6.506;2023-04-03T10:55:54;13.50;49.00
55083;DHT22;40978;52.850;6.506;2023-04-03T10:58:35;13.70;53.00
55083;DHT22;40978;52.850;6.506;2023-04-03T11:01:13;13.90;50.20
55083;DHT22;40978;52.850;6.506;2023-04-03T11:03:49;13.70;49.30
55083;DHT22;40978;52.850;6.506;2023-04-03T11:06:18;13.50;50.10
55083;DHT22;40978;52.850;6.506;2023-04-03T11:08:55;13.50;53.10
55083;DHT22;40978;52.850;6.506;2023-04-03T11:11:26;13.60;50.70
55083;DHT22;40978;52.850;6.506;2023-04-03T11:14:03;13.60;52.80
55083;DHT22;40978;52.850;6.506;2023-04-03T11:16:34;13.80;49.90
55083;DHT22;40978;52.850;6.506;2023-04-03T11:19:10;13.60;50.80
55083;DHT22;40978;52.850;6.506;2023-04-03T11:24:17;13.50;52.10
55083;DHT22;40978;52.850;6.506;2023-04-03T11:26:46;13.70;51.00
55083;DHT22;40978;52.850;6.506;2023-04-03T11:29:20;14.00;51.50
55083;DHT22;40978;52.850;6.506;2023-04-03T11:34:42;14.20;50.00
55083;DHT22;40978;52.850;6.506;2023-04-03T11:37:29;14.40;46.90
55083;DHT22;40978;52.850;6.506;2023-04-03T11:39:59;13.90;47.00
55083;DHT22;40978;52.850;6.506;2023-04-03T11:42:35;14.10;49.80
55083;DHT22;40978;52.850;6.506;2023-04-03T11:47:49;14.20;46.30
55083;DHT22;40978;52.850;6.506;2023-04-03T11:53:46;14.30;45.70
55083;DHT22;40978;52.850;6.506;2023-04-03T11:58:17;14.30;48.20
55083;DHT22;40978;52.850;6.506;2023-04-03T12:29:32;15.60;46.30
55083;DHT22;40978;52.850;6.506;2023-04-03T12:40:47;16.10;46.20
55083;DHT22;40978;52.850;6.506;2023-04-03T12:48:29;16.50;46.70
55083;DHT22;40978;52.850;6.506;2023-04-03T12:50:56;16.70;46.40
55083;DHT22;40978;52.850;6.506;2023-04-03T12:53:33;16.50;46.00
55083;DHT22;40978;52.850;6.506;2023-04-03T12:58:44;16.80;45.80
55083;DHT22;40978;52.850;6.506;2023-04-03T13:01:13;16.70;46.80
55083;DHT22;40978;52.850;6.506;2023-04-03T13:03:43;16.70;45.30
55083;DHT22;40978;52.850;6.506;2023-04-03T13:06:32;17.00;46.50
55083;DHT22;40978;52.850;6.506;2023-04-03T13:09:00;16.90;44.70
55083;DHT22;40978;52.850;6.506;2023-04-03T13:11:32;16.70;45.50
55083;DHT22;40978;52.850;6.506;2023-04-03T13:14:03;16.50;44.90
55083;DHT22;40978;52.850;6.506;2023-04-03T13:16:31;16.60;47.00
55083;DHT22;40978;52.850;6.506;2023-04-03T13:18:58;16.50;45.90
55083;DHT22;40978;52.850;6.506;2023-04-03T13:21:30;16.40;46.20
55083;DHT22;40978;52.850;6.506;2023-04-03T13:24:00;16.10;45.00
55083;DHT22;40978;52.850;6.506;2023-04-03T13:26:31;15.70;45.40
55083;DHT22;40978;52.850;6.506;2023-04-03T13:29:07;15.30;45.50
55083;DHT22;40978;52.850;6.506;2023-04-03T13:31:42;14.80;45.80
55083;DHT22;40978;52.850;6.506;2023-04-03T13:34:18;14.50;47.50
55083;DHT22;40978;52.850;6.506;2023-04-03T13:37:06;14.60;48.20
55083;DHT22;40978;52.850;6.506;2023-04-03T13:39:37;14.00;46.70
55083;DHT22;40978;52.850;6.506;2023-04-03T13:42:33;13.50;50.50
55083;DHT22;40978;52.850;6.506;2023-04-03T13:45:24;13.10;47.30
55083;DHT22;40978;52.850;6.506;2023-04-03T13:48:16;12.70;50.30
55083;DHT22;40978;52.850;6.506;2023-04-03T13:51:02;12.50;52.20
55083;DHT22;40978;52.850;6.506;2023-04-03T13:53:31;12.20;49.10
55083;DHT22;40978;52.850;6.506;2023-04-03T13:58:30;12.10;53.90
55083;DHT22;40978;52.850;6.506;2023-04-03T14:03:42;12.00;49.60
55083;DHT22;40978;52.850;6.506;2023-04-03T14:06:11;11.70;50.70
55083;DHT22;40978;52.850;6.506;2023-04-03T14:08:38;11.40;50.40
55083;DHT22;40978;52.850;6.506;2023-04-03T14:11:03;11.40;51.30
55083;DHT22;40978;52.850;6.506;2023-04-03T14:13:31;11.30;51.20
55083;DHT22;40978;52.850;6.506;2023-04-03T14:15:57;11.10;51.90
55083;DHT22;40978;52.850;6.506;2023-04-03T14:18:23;10.90;51.60
55083;DHT22;40978;52.850;6.506;2023-04-03T14:20:49;10.80;52.10
55083;DHT22;40978;52.850;6.506;2023-04-03T14:23:15;10.70;50.70
55083;DHT22;40978;52.850;6.506;2023-04-03T14:25:41;10.40;51.20
55083;DHT22;40978;52.850;6.506;2023-04-03T14:28:19;10.20;51.10
55083;DHT22;40978;52.850;6.506;2023-04-03T14:30:46;10.10;52.60
55083;DHT22;40978;52.850;6.506;2023-04-03T14:33:17;10.00;51.70
55083;DHT22;40978;52.850;6.506;2023-04-03T14:35:43;9.90;52.40
55083;DHT22;40978;52.850;6.506;2023-04-03T14:38:25;9.90;53.00
55083;DHT22;40978;52.850;6.506;2023-04-03T14:40:52;9.90;53.80
55083;DHT22;40978;52.850;6.506;2023-04-03T14:43:18;10.00;53.40
55083;DHT22;40978;52.850;6.506;2023-04-03T14:45:44;9.90;53.80
55083;DHT22;40978;52.850;6.506;2023-04-03T14:48:23;9.70;53.00
55083;DHT22;40978;52.850;6.506;2023-04-03T14:50:50;9.70;52.80
55083;DHT22;40978;52.850;6.506;2023-04-03T14:53:18;9.60;53.70
55083;DHT22;40978;52.850;6.506;2023-04-03T14:55:49;9.50;55.30
55083;DHT22;40978;52.850;6.506;2023-04-03T14:58:17;9.40;55.60
55083;DHT22;40978;52.850;6.506;2023-04-03T15:00:45;9.30;54.90
55083;DHT22;40978;52.850;6.506;2023-04-03T15:03:20;9.30;55.50
55083;DHT22;40978;52.850;6.506;2023-04-03T15:05:48;9.20;55.40
55083;DHT22;40978;52.850;6.506;2023-04-03T15:08:23;9.10;55.70
55083;DHT22;40978;52.850;6.506;2023-04-03T15:10:50;9.10;56.10
55083;DHT22;40978;52.850;6.506;2023-04-03T15:13:18;9.10;56.00
55083;DHT22;40978;52.850;6.506;2023-04-03T15:15:44;9.00;55.90
55083;DHT22;40978;52.850;6.506;2023-04-03T15:18:22;8.90;55.80
55083;DHT22;40978;52.850;6.506;2023-04-03T15:20:49;8.90;55.60
55083;DHT22;40978;52.850;6.506;2023-04-03T15:23:16;8.90;56.90
55083;DHT22;40978;52.850;6.506;2023-04-03T15:25:43;8.90;56.20
55083;DHT22;40978;52.850;6.506;2023-04-03T15:28:18;8.80;55.80
55083;DHT22;40978;52.850;6.506;2023-04-03T15:30:44;8.70;55.80
55083;DHT22;40978;52.850;6.506;2023-04-03T15:33:10;8.70;56.90
55083;DHT22;40978;52.850;6.506;2023-04-03T15:35:36;8.70;57.90
55083;DHT22;40978;52.850;6.506;2023-04-03T15:38:01;8.70;58.10
55083;DHT22;40978;52.850;6.506;2023-04-03T15:40:27;8.70;58.10
55083;DHT22;40978;52.850;6.506;2023-04-03T15:42:53;8.60;57.50
55083;DHT22;40978;52.850;6.506;2023-04-03T15:45:19;8.60;57.60
55083;DHT22;40978;52.850;6.506;2023-04-03T15:47:46;8.50;57.30
55083;DHT22;40978;52.850;6.506;2023-04-03T15:50:12;8.50;57.40
55083;DHT22;40978;52.850;6.506;2023-04-03T15:52:38;8.50;57.20
55083;DHT22;40978;52.850;6.506;2023-04-03T15:55:04;8.50;57.10
55083;DHT22;40978;52.850;6.506;2023-04-03T15:57:31;8.50;57.10
55083;DHT22;40978;52.850;6.506;2023-04-03T15:59:57;8.40;57.30
55083;DHT22;40978;52.850;6.506;2023-04-03T16:02:23;8.50;57.00
55083;DHT22;40978;52.850;6.506;2023-04-03T16:04:49;8.40;57.10
55083;DHT22;40978;52.850;6.506;2023-04-03T16:07:14;8.30;58.00
55083;DHT22;40978;52.850;6.506;2023-04-03T16:09:40;8.30;57.90
55083;DHT22;40978;52.850;6.506;2023-04-03T16:12:06;8.30;58.00
55083;DHT22;40978;52.850;6.506;2023-04-03T16:14:32;8.30;58.90
55083;DHT22;40978;52.850;6.506;2023-04-03T16:16:58;8.30;57.90
55083;DHT22;40978;52.850;6.506;2023-04-03T16:19:24;8.30;58.00
55083;DHT22;40978;52.850;6.506;2023-04-03T16:21:50;8.30;58.60
55083;DHT22;40978;52.850;6.506;2023-04-03T16:24:16;8.30;58.90
55083;DHT22;40978;52.850;6.506;2023-04-03T16:26:42;8.20;59.70
55083;DHT22;40978;52.850;6.506;2023-04-03T16:29:07;8.20;59.50
55083;DHT22;40978;52.850;6.506;2023-04-03T16:31:33;8.20;59.60
55083;DHT22;40978;52.850;6.506;2023-04-03T16:34:00;8.20;59.70
55083;DHT22;40978;52.850;6.506;2023-04-03T16:36:26;8.20;59.20
55083;DHT22;40978;52.850;6.506;2023-04-03T16:38:52;8.20;59.90
55083;DHT22;40978;52.850;6.506;2023-04-03T16:41:18;8.10;59.80
55083;DHT22;40978;52.850;6.506;2023-04-03T16:43:43;8.10;59.50
55083;DHT22;40978;52.850;6.506;2023-04-03T16:46:09;8.10;59.30
55083;DHT22;40978;52.850;6.506;2023-04-03T16:48:35;8.00;59.30
55083;DHT22;40978;52.850;6.506;2023-04-03T16:51:01;8.00;58.90
55083;DHT22;40978;52.850;6.506;2023-04-03T16:53:27;8.00;59.00
55083;DHT22;40978;52.850;6.506;2023-04-03T16:55:53;8.00;59.60
55083;DHT22;40978;52.850;6.506;2023-04-03T16:58:19;8.00;60.70
55083;DHT22;40978;52.850;6.506;2023-04-03T17:00:45;7.90;61.70
55083;DHT22;40978;52.850;6.506;2023-04-03T17:03:12;8.00;60.60
55083;DHT22;40978;52.850;6.506;2023-04-03T17:05:38;7.90;61.30
55083;DHT22;40978;52.850;6.506;2023-04-03T17:08:04;7.90;61.60
55083;DHT22;40978;52.850;6.506;2023-04-03T17:10:29;7.90;61.60
55083;DHT22;40978;52.850;6.506;2023-04-03T17:12:56;7.90;61.40
55083;DHT22;40978;52.850;6.506;2023-04-03T17:15:22;7.80;61.90
55083;DHT22;40978;52.850;6.506;2023-04-03T17:17:51;7.80;62.20
55083;DHT22;40978;52.850;6.506;2023-04-03T17:20:17;7.70;61.80
55083;DHT22;40978;52.850;6.506;2023-04-03T17:22:43;7.70;62.20
55083;DHT22;40978;52.850;6.506;2023-04-03T17:25:10;7.70;62.60
55083;DHT22;40978;52.850;6.506;2023-04-03T17:27:36;7.60;61.10
55083;DHT22;40978;52.850;6.506;2023-04-03T17:30:02;7.60;61.90
55083;DHT22;40978;52.850;6.506;2023-04-03T17:32:28;7.60;61.70
55083;DHT22;40978;52.850;6.506;2023-04-03T17:34:53;7.50;61.70